createdAt,value
2018-12-29T00:02:10.755Z,0.20
2018-12-29T00:05:00.218Z,0.20
2018-12-29T00:07:42.068Z,0.20
2018-12-29T00:10:31.452Z,0.20
2018-12-29T00:13:13.135Z,0.20
2018-12-29T00:16:21.473Z,0.20
2018-12-29T00:19:03.776Z,0.10
2018-12-29T00:21:53.122Z,0.10
2018-12-29T00:24:35.765Z,0.20
2018-12-29T00:27:25.150Z,0.20
2018-12-29T00:30:07.121Z,0.20
2018-12-29T00:32:56.466Z,0.20
2018-12-29T00:35:38.380Z,0.20
2018-12-29T00:38:20.821Z,0.20
2018-12-29T00:41:10.167Z,0.20
2018-12-29T00:43:52.464Z,0.30
2018-12-29T00:46:41.898Z,0.30
2018-12-29T00:49:24.251Z,0.30
2018-12-29T00:52:13.689Z,0.20
2018-12-29T00:57:36.880Z,0.30
2018-12-29T01:00:26.491Z,0.30
2018-12-29T01:03:08.760Z,0.30
2018-12-29T01:05:58.218Z,0.20
2018-12-29T01:08:40.572Z,0.20
2018-12-29T01:11:30.009Z,0.20
2018-12-29T01:14:12.970Z,0.20
2018-12-29T01:17:02.303Z,0.20
2018-12-29T01:19:44.699Z,0.20
2018-12-29T01:22:34.184Z,0.20
2018-12-29T01:25:16.388Z,0.20
2018-12-29T01:28:05.883Z,0.20
2018-12-29T01:30:47.859Z,0.20
2018-12-29T01:33:37.537Z,0.20
2018-12-29T01:36:19.367Z,0.20
2018-12-29T01:39:01.446Z,0.20
2018-12-29T01:41:50.821Z,0.20
2018-12-29T01:44:32.658Z,0.30
2018-12-29T01:47:22.012Z,0.30
2018-12-29T01:50:03.968Z,0.30
2018-12-29T01:52:53.612Z,0.30
2018-12-29T01:55:43.037Z,0.30
2018-12-29T01:58:25.223Z,0.30
2018-12-29T02:01:14.650Z,0.30
2018-12-29T02:03:56.747Z,0.30
2018-12-29T02:06:46.187Z,0.30
2018-12-29T02:09:28.594Z,0.30
2018-12-29T02:12:17.937Z,0.20
2018-12-29T02:15:00.015Z,0.20
2018-12-29T02:17:49.391Z,0.20
2018-12-29T02:20:38.820Z,0.20
2018-12-29T02:23:21.227Z,0.20
2018-12-29T02:26:10.726Z,0.20
2018-12-29T02:28:52.803Z,0.20
2018-12-29T02:31:42.185Z,0.20
2018-12-29T02:34:24.740Z,0.20
2018-12-29T02:37:14.257Z,0.20
2018-12-29T02:39:56.372Z,0.20
2018-12-29T02:42:45.777Z,0.20
2018-12-29T02:45:35.157Z,0.20
2018-12-29T02:48:17.063Z,0.20
2018-12-29T02:51:06.490Z,0.20
2018-12-29T02:53:48.686Z,0.20
2018-12-29T02:56:38.048Z,0.20
2018-12-29T02:59:20.484Z,0.30
2018-12-29T03:02:09.841Z,0.30
2018-12-29T03:04:51.844Z,0.30
2018-12-29T03:07:41.256Z,0.30
2018-12-29T03:10:23.239Z,0.30
2018-12-29T03:13:12.737Z,0.30
2018-12-29T03:15:54.443Z,0.30
2018-12-29T03:18:43.825Z,0.30
2018-12-29T03:21:33.234Z,0.20
2018-12-29T03:24:15.640Z,0.20
2018-12-29T03:27:05.095Z,0.10
2018-12-29T03:29:46.877Z,0.10
2018-12-29T03:32:36.337Z,0.10
2018-12-29T03:35:18.721Z,0.20
2018-12-29T03:38:08.221Z,0.10
2018-12-29T03:40:57.709Z,0.10
2018-12-29T03:43:39.950Z,0.00
2018-12-29T03:46:29.449Z,0.00
2018-12-29T03:49:11.308Z,0.10
2018-12-29T03:52:00.741Z,0.00
2018-12-29T03:54:42.857Z,0.00
2018-12-29T03:57:32.299Z,0.00
2018-12-29T04:00:14.998Z,0.00
2018-12-29T04:03:04.434Z,-0.10
2018-12-29T04:05:46.724Z,-0.10
2018-12-29T04:08:36.153Z,0.00
2018-12-29T04:11:18.681Z,0.00
2018-12-29T04:14:08.119Z,0.00
2018-12-29T04:16:50.677Z,-0.10
2018-12-29T04:19:20.950Z,-0.10
2018-12-29T04:22:10.374Z,-0.10
2018-12-29T04:24:59.713Z,-0.10
2018-12-29T04:27:41.762Z,-0.20
2018-12-29T04:30:31.202Z,-0.30
2018-12-29T04:33:20.551Z,-0.40
2018-12-29T04:36:02.677Z,-0.50
2018-12-29T04:38:44.775Z,-0.50
2018-12-29T04:41:34.120Z,-0.60
2018-12-29T04:44:16.247Z,-0.70
2018-12-29T04:47:05.731Z,-0.80
2018-12-29T04:49:48.205Z,-0.90
2018-12-29T04:52:37.739Z,-1.00
2018-12-29T04:55:20.044Z,-1.00
2018-12-29T04:58:09.496Z,-1.10
2018-12-29T05:00:51.599Z,-1.10
2018-12-29T05:03:41.061Z,-1.20
2018-12-29T05:06:23.320Z,-1.30
2018-12-29T05:09:12.782Z,-1.30
2018-12-29T05:11:55.149Z,-1.40
2018-12-29T05:14:44.604Z,-1.50
2018-12-29T05:17:27.124Z,-1.60
2018-12-29T05:20:16.489Z,-1.60
2018-12-29T05:22:58.424Z,-1.60
2018-12-29T05:25:47.828Z,-1.70
2018-12-29T05:28:30.571Z,-1.70
2018-12-29T05:31:19.979Z,-1.70
2018-12-29T05:34:02.664Z,-1.70
2018-12-29T05:36:52.060Z,-1.70
2018-12-29T05:39:34.377Z,-1.60
2018-12-29T05:45:24.635Z,-1.50
2018-12-29T05:48:14.026Z,-1.40
2018-12-29T05:50:44.192Z,-1.30
2018-12-29T05:53:33.636Z,-1.30
2018-12-29T05:56:23.000Z,-1.30
2018-12-29T05:59:05.184Z,-1.20
2018-12-29T06:01:54.566Z,-1.10
2018-12-29T06:04:36.668Z,-1.10
2018-12-29T06:07:26.006Z,-1.00
2018-12-29T06:10:07.759Z,-0.50
2018-12-29T06:12:57.186Z,-0.50
2018-12-29T06:15:39.509Z,-0.50
2018-12-29T06:18:28.850Z,-0.50
2018-12-29T06:21:11.055Z,-0.50
2018-12-29T06:24:00.429Z,-0.50
2018-12-29T06:26:42.721Z,-0.50
2018-12-29T06:29:32.178Z,-0.50
2018-12-29T06:32:14.440Z,-0.50
2018-12-29T06:35:03.969Z,-0.50
2018-12-29T06:37:45.913Z,-0.50
2018-12-29T06:43:15.187Z,-0.40
2018-12-29T06:45:57.604Z,-0.40
2018-12-29T06:48:46.936Z,-0.40
2018-12-29T06:51:29.594Z,-0.40
2018-12-29T06:54:19.042Z,-0.40
2018-12-29T06:57:00.824Z,-0.40
2018-12-29T06:59:50.192Z,-0.30
2018-12-29T07:02:32.188Z,0.90
2018-12-29T07:05:21.529Z,1.40
2018-12-29T07:08:04.247Z,1.20
2018-12-29T07:10:53.657Z,1.00
2018-12-29T07:13:35.761Z,0.80
2018-12-29T07:16:25.136Z,0.60
2018-12-29T07:19:07.145Z,0.50
2018-12-29T07:21:56.594Z,0.40
2018-12-29T07:24:38.570Z,0.40
2018-12-29T07:27:27.907Z,0.30
2018-12-29T07:30:10.350Z,0.40
2018-12-29T07:36:01.035Z,0.60
2018-12-29T07:38:43.091Z,0.60
2018-12-29T07:41:32.471Z,0.70
2018-12-29T07:44:14.303Z,0.80
2018-12-29T07:50:11.887Z,0.70
2018-12-29T07:53:01.398Z,0.70
2018-12-29T07:55:43.420Z,0.60
2018-12-29T07:58:32.761Z,0.60
2018-12-29T08:01:15.377Z,0.50
2018-12-29T08:04:04.810Z,0.50
2018-12-29T08:06:47.016Z,0.50
2018-12-29T08:09:36.419Z,0.50
2018-12-29T08:12:19.001Z,0.50
2018-12-29T08:15:08.366Z,0.60
2018-12-29T08:17:50.347Z,0.60
2018-12-29T08:20:39.717Z,0.60
2018-12-29T08:23:29.077Z,0.60
2018-12-29T08:26:18.508Z,0.70
2018-12-29T08:29:00.637Z,0.80
2018-12-29T08:31:50.018Z,0.80
2018-12-29T08:34:31.860Z,0.80
2018-12-29T08:37:21.289Z,0.80
2018-12-29T08:40:03.494Z,0.90
2018-12-29T08:42:53.019Z,1.00
2018-12-29T08:45:35.700Z,1.10
2018-12-29T08:48:25.050Z,1.20
2018-12-29T08:51:07.036Z,1.30
2018-12-29T08:53:56.396Z,1.30
2018-12-29T08:56:38.408Z,1.40
2018-12-29T08:59:27.764Z,1.50
2018-12-29T09:02:10.148Z,1.50
2018-12-29T09:04:59.601Z,1.50
2018-12-29T09:07:41.961Z,1.60
2018-12-29T09:13:19.390Z,1.50
2018-12-29T09:16:08.791Z,1.40
2018-12-29T09:18:51.038Z,1.40
2018-12-29T09:21:40.456Z,1.40
2018-12-29T09:24:22.818Z,1.40
2018-12-29T09:27:12.270Z,1.40
2018-12-29T09:29:54.356Z,1.50
2018-12-29T09:32:43.724Z,1.50
2018-12-29T09:35:26.511Z,1.60
2018-12-29T09:38:15.903Z,1.80
2018-12-29T09:41:05.327Z,1.80
2018-12-29T09:43:54.731Z,2.00
2018-12-29T09:46:36.966Z,2.00
2018-12-29T09:49:26.413Z,2.20
2018-12-29T09:52:08.709Z,2.30
2018-12-29T09:54:58.096Z,2.30
2018-12-29T09:57:40.402Z,2.40
2018-12-29T10:00:29.836Z,2.40
2018-12-29T10:02:59.984Z,2.40
2018-12-29T10:05:49.413Z,2.50
2018-12-29T10:08:38.868Z,2.50
2018-12-29T10:11:20.842Z,2.40
2018-12-29T10:14:10.212Z,2.40
2018-12-29T10:16:52.160Z,2.40
2018-12-29T10:19:41.502Z,2.40
2018-12-29T10:22:23.783Z,2.30
2018-12-29T10:25:13.115Z,2.20
2018-12-29T10:27:55.451Z,2.10
2018-12-29T10:30:44.932Z,2.00
2018-12-29T10:33:34.284Z,2.00
2018-12-29T10:36:16.574Z,2.00
2018-12-29T10:38:59.061Z,2.10
2018-12-29T10:41:48.408Z,2.10
2018-12-29T10:44:30.442Z,2.10
2018-12-29T10:47:19.870Z,2.10
2018-12-29T10:50:02.057Z,2.10
2018-12-29T10:52:51.547Z,2.20
2018-12-29T10:55:33.927Z,2.40
2018-12-29T10:58:23.288Z,2.70
2018-12-29T11:01:05.435Z,2.80
2018-12-29T11:03:54.925Z,2.80
2018-12-29T11:06:37.446Z,2.90
2018-12-29T11:09:26.793Z,2.90
2018-12-29T11:12:08.782Z,3.20
2018-12-29T11:14:58.155Z,3.40
2018-12-29T11:17:42.483Z,3.20
2018-12-29T11:20:31.840Z,3.30
2018-12-29T11:25:59.275Z,3.30
2018-12-29T11:28:41.185Z,3.30
2018-12-29T11:31:30.615Z,3.40
2018-12-29T11:34:12.901Z,3.40
2018-12-29T11:37:02.276Z,3.50
2018-12-29T11:39:44.316Z,3.60
2018-12-29T11:42:33.972Z,3.60
2018-12-29T11:45:15.733Z,3.80
2018-12-29T11:48:05.259Z,3.80
2018-12-29T11:50:47.931Z,3.80
2018-12-29T11:53:37.419Z,3.80
2018-12-29T11:56:19.429Z,3.80
2018-12-29T11:59:08.876Z,3.90
2018-12-29T12:01:50.631Z,3.90
2018-12-29T12:04:40.496Z,3.80
2018-12-29T12:07:22.954Z,3.70
2018-12-29T12:10:12.316Z,3.70
2018-12-29T12:12:54.502Z,3.60
2018-12-29T12:15:43.939Z,3.60
2018-12-29T12:18:27.848Z,3.60
2018-12-29T12:21:17.286Z,3.70
2018-12-29T12:23:59.786Z,3.70
2018-12-29T12:26:49.237Z,3.70
2018-12-29T12:29:31.402Z,3.80
2018-12-29T12:32:20.756Z,3.80
2018-12-29T12:35:05.224Z,3.80
2018-12-29T12:37:54.577Z,3.90
2018-12-29T12:40:37.143Z,3.80
2018-12-29T12:43:26.506Z,3.80
2018-12-29T12:46:09.933Z,3.80
2018-12-29T12:48:59.440Z,3.90
2018-12-29T12:51:42.030Z,3.90
2018-12-29T12:54:12.651Z,3.90
2018-12-29T12:57:02.110Z,4.00
2018-12-29T12:59:46.358Z,4.00
2018-12-29T13:02:35.717Z,4.00
2018-12-29T13:05:18.011Z,4.00
2018-12-29T13:08:07.434Z,4.00
2018-12-29T13:10:49.840Z,4.00
2018-12-29T13:13:20.166Z,4.10
2018-12-29T13:16:09.718Z,4.10
2018-12-29T13:18:59.158Z,4.20
2018-12-29T13:21:41.653Z,4.20
2018-12-29T13:24:31.072Z,4.20
2018-12-29T13:27:13.072Z,4.30
2018-12-29T13:30:02.433Z,4.40
2018-12-29T13:32:44.730Z,4.40
2018-12-29T13:35:34.104Z,4.30
2018-12-29T13:38:16.395Z,4.40
2018-12-29T13:41:06.032Z,4.40
2018-12-29T13:43:48.546Z,4.30
2018-12-29T13:46:38.100Z,4.30
2018-12-29T13:49:20.226Z,4.20
2018-12-29T13:52:09.744Z,4.20
2018-12-29T13:54:59.140Z,4.20
2018-12-29T13:57:41.808Z,4.10
2018-12-29T14:00:31.186Z,4.20
2018-12-29T14:03:08.513Z,4.30
2018-12-29T14:05:57.991Z,4.20
2018-12-29T14:08:47.310Z,4.30
2018-12-29T14:11:36.758Z,4.30
2018-12-29T14:14:18.953Z,4.20
2018-12-29T14:17:08.396Z,4.10
2018-12-29T14:19:50.721Z,4.00
2018-12-29T14:22:40.262Z,4.00
2018-12-29T14:25:22.059Z,4.10
2018-12-29T14:28:11.412Z,4.00
2018-12-29T14:30:53.818Z,4.00
2018-12-29T14:33:43.262Z,4.10
2018-12-29T14:36:25.764Z,4.10
2018-12-29T14:39:07.809Z,4.10
2018-12-29T14:41:57.261Z,4.10
2018-12-29T14:44:39.327Z,4.10
2018-12-29T14:47:28.869Z,4.10
2018-12-29T14:50:11.228Z,4.20
2018-12-29T14:53:01.078Z,4.20
2018-12-29T14:55:31.407Z,4.10
2018-12-29T14:58:20.771Z,4.00
2018-12-29T15:01:10.303Z,3.90
2018-12-29T15:03:52.323Z,3.90
2018-12-29T15:06:41.726Z,3.80
2018-12-29T15:09:24.371Z,3.80
2018-12-29T15:12:13.745Z,3.70
2018-12-29T15:14:55.702Z,3.70
2018-12-29T15:17:45.095Z,3.70
2018-12-29T15:20:29.082Z,3.70
2018-12-29T15:23:18.743Z,3.70
2018-12-29T15:26:01.399Z,3.70
2018-12-29T15:28:50.870Z,3.70
2018-12-29T15:31:33.381Z,3.70
2018-12-29T15:34:22.839Z,3.60
2018-12-29T15:37:05.703Z,3.60
2018-12-29T15:39:47.891Z,3.60
2018-12-29T15:42:44.712Z,3.60
2018-12-29T15:45:21.407Z,3.60
2018-12-29T15:48:10.764Z,3.50
2018-12-29T15:50:52.698Z,3.50
2018-12-29T15:53:42.157Z,3.50
2018-12-29T15:56:23.845Z,3.50
2018-12-29T15:59:13.276Z,3.40
2018-12-29T16:01:55.193Z,3.30
2018-12-29T16:04:44.542Z,3.30
2018-12-29T16:07:26.753Z,3.20
2018-12-29T16:09:56.989Z,3.20
2018-12-29T16:12:46.458Z,3.10
2018-12-29T16:15:30.144Z,3.10
2018-12-29T16:18:19.875Z,3.00
2018-12-29T16:21:02.398Z,2.90
2018-12-29T16:23:51.770Z,2.90
2018-12-29T16:26:33.841Z,2.80
2018-12-29T16:29:04.323Z,2.70
2018-12-29T16:31:53.752Z,2.60
2018-12-29T16:34:43.091Z,2.70
2018-12-29T16:37:25.284Z,2.60
2018-12-29T16:40:08.092Z,2.60
2018-12-29T16:42:57.525Z,2.60
2018-12-29T16:45:40.059Z,2.50
2018-12-29T16:48:29.801Z,2.50
2018-12-29T16:51:13.327Z,2.40
2018-12-29T16:54:03.070Z,2.40
2018-12-29T16:56:46.577Z,2.30
2018-12-29T16:59:35.974Z,2.30
2018-12-29T17:02:18.176Z,2.20
2018-12-29T17:05:07.755Z,2.20
2018-12-29T17:07:50.481Z,2.20
2018-12-29T17:10:39.903Z,2.20
2018-12-29T17:13:23.382Z,2.20
2018-12-29T17:16:12.881Z,2.20
2018-12-29T17:19:02.348Z,2.20
2018-12-29T17:21:44.502Z,2.20
2018-12-29T17:24:33.936Z,2.10
2018-12-29T17:27:18.323Z,2.20
2018-12-29T17:30:07.870Z,2.20
2018-12-29T17:32:51.405Z,2.20
2018-12-29T17:35:41.124Z,2.20
2018-12-29T17:38:23.620Z,2.20
2018-12-29T17:41:13.038Z,2.20
2018-12-29T17:43:56.907Z,2.20
2018-12-29T17:46:46.557Z,2.30
2018-12-29T17:49:28.964Z,2.20
2018-12-29T17:52:18.805Z,2.30
2018-12-29T17:55:00.966Z,2.30
2018-12-29T17:57:50.342Z,2.30
2018-12-29T18:00:20.854Z,2.30
2018-12-29T18:02:51.150Z,2.30
2018-12-29T18:05:21.532Z,2.30
2018-12-29T18:08:11.013Z,2.40
2018-12-29T18:11:00.400Z,2.40
2018-12-29T18:13:42.463Z,2.40
2018-12-29T18:16:32.282Z,2.50
2018-12-29T18:19:02.556Z,2.50
2018-12-29T18:21:32.883Z,2.50
2018-12-29T18:24:03.295Z,2.50
2018-12-29T18:26:34.648Z,2.50
2018-12-29T18:29:05.261Z,2.60
2018-12-29T18:31:35.568Z,2.60
2018-12-29T18:34:05.884Z,2.60
2018-12-29T18:36:36.120Z,2.60
2018-12-29T18:39:18.375Z,2.70
2018-12-29T18:42:07.856Z,2.80
2018-12-29T18:44:38.279Z,2.70
2018-12-29T18:47:29.842Z,2.80
2018-12-29T18:50:00.234Z,2.80
2018-12-29T18:52:50.880Z,2.90
2018-12-29T18:55:32.779Z,3.00
2018-12-29T19:01:11.042Z,3.10
2018-12-29T19:04:00.625Z,3.20
2018-12-29T19:06:51.007Z,3.30
2018-12-29T19:09:33.048Z,3.30
2018-12-29T19:12:22.396Z,3.20
2018-12-29T19:14:52.532Z,3.30
2018-12-29T19:17:41.943Z,3.20
2018-12-29T19:20:25.629Z,3.20
2018-12-29T19:22:55.914Z,3.20
2018-12-29T19:25:26.199Z,3.20
2018-12-29T19:28:15.691Z,3.30
2018-12-29T19:31:05.138Z,3.20
2018-12-29T19:33:49.606Z,3.30
2018-12-29T19:36:39.084Z,3.30
2018-12-29T19:39:22.727Z,3.30
2018-12-29T19:42:12.292Z,3.20
2018-12-29T19:44:54.672Z,3.20
2018-12-29T19:47:44.027Z,3.20
2018-12-29T19:50:28.202Z,3.20
2018-12-29T19:53:17.633Z,3.10
2018-12-29T19:55:59.611Z,3.20
2018-12-29T19:58:29.959Z,3.20
2018-12-29T20:01:19.410Z,3.20
2018-12-29T20:04:08.840Z,3.20
2018-12-29T20:06:50.979Z,3.20
2018-12-29T20:09:40.415Z,3.20
2018-12-29T20:12:23.045Z,3.20
2018-12-29T20:15:12.605Z,3.10
2018-12-29T20:17:55.011Z,3.10
2018-12-29T20:20:44.476Z,3.00
2018-12-29T20:23:28.644Z,3.00
2018-12-29T20:29:12.803Z,3.00
2018-12-29T20:31:55.122Z,3.00
2018-12-29T20:34:44.512Z,3.00
2018-12-29T20:37:26.670Z,3.00
2018-12-29T20:40:09.411Z,2.90
2018-12-29T20:42:58.770Z,2.90
2018-12-29T20:45:41.316Z,2.90
2018-12-29T20:51:12.474Z,2.90
2018-12-29T20:54:01.936Z,2.90
2018-12-29T20:56:32.294Z,2.90
2018-12-29T20:59:02.667Z,3.00
2018-12-29T21:01:32.910Z,3.00
2018-12-29T21:04:03.535Z,3.00
2018-12-29T21:06:34.023Z,3.00
2018-12-29T21:09:05.894Z,3.00
2018-12-29T21:11:36.258Z,3.00
2018-12-29T21:14:06.566Z,3.10
2018-12-29T21:16:37.226Z,3.10
2018-12-29T21:19:07.464Z,3.20
2018-12-29T21:21:37.785Z,3.20
2018-12-29T21:24:12.170Z,3.20
2018-12-29T21:26:40.097Z,3.30
2018-12-29T21:29:10.288Z,3.30
2018-12-29T21:31:40.513Z,3.30
2018-12-29T21:34:10.708Z,3.30
2018-12-29T21:36:40.945Z,3.30
2018-12-29T21:39:11.201Z,3.30
2018-12-29T21:41:41.621Z,3.40
2018-12-29T21:44:11.812Z,3.40
2018-12-29T21:46:42.033Z,3.40
2018-12-29T21:49:12.331Z,3.40
2018-12-29T21:51:42.541Z,3.40
2018-12-29T21:54:12.733Z,3.30
2018-12-29T21:56:43.095Z,3.30
2018-12-29T21:59:13.349Z,3.30
2018-12-29T22:01:43.666Z,3.20
2018-12-29T22:04:13.973Z,3.20
2018-12-29T22:06:44.356Z,3.20
2018-12-29T22:09:14.585Z,3.20
2018-12-29T22:11:44.801Z,3.20
2018-12-29T22:14:15.090Z,3.30
2018-12-29T22:16:45.592Z,3.40
2018-12-29T22:19:15.923Z,3.40
2018-12-29T22:21:46.199Z,3.50
2018-12-29T22:24:16.410Z,3.60
2018-12-29T22:26:46.742Z,3.70
2018-12-29T22:29:17.285Z,3.80
2018-12-29T22:31:47.556Z,3.80
2018-12-29T22:34:17.771Z,4.00
2018-12-29T22:36:48.166Z,4.00
2018-12-29T22:39:18.425Z,4.10
2018-12-29T22:41:48.748Z,4.20
2018-12-29T22:44:19.045Z,4.30
2018-12-29T22:46:49.317Z,4.40
2018-12-29T22:49:19.546Z,4.40
2018-12-29T22:51:49.790Z,4.50
2018-12-29T22:54:20.127Z,4.50
2018-12-29T22:56:50.399Z,4.60
2018-12-29T22:59:21.724Z,4.60
2018-12-29T23:01:52.058Z,4.70
2018-12-29T23:04:22.352Z,4.70
2018-12-29T23:06:52.619Z,4.70
2018-12-29T23:09:22.903Z,4.70
2018-12-29T23:11:53.240Z,4.70
2018-12-29T23:14:24.108Z,4.80
2018-12-29T23:16:54.818Z,4.80
2018-12-29T23:19:25.178Z,4.80
2018-12-29T23:21:57.608Z,4.80
2018-12-29T23:26:57.848Z,4.80
2018-12-29T23:29:29.021Z,4.80
2018-12-29T23:31:59.322Z,4.90
2018-12-29T23:34:30.049Z,4.80
2018-12-29T23:37:00.425Z,4.90
2018-12-29T23:39:30.771Z,4.90
2018-12-29T23:42:01.548Z,4.90
2018-12-29T23:44:31.703Z,4.90
2018-12-29T23:47:02.107Z,4.90
2018-12-29T23:49:32.612Z,4.90
2018-12-29T23:52:03.335Z,4.90
2018-12-29T23:54:33.618Z,4.90
2018-12-29T23:57:03.943Z,4.90
2018-12-29T23:59:34.340Z,4.90
